createdAt,value
2022-10-26T00:02:09.556Z,9.10
2022-10-26T00:04:42.452Z,9.10
2022-10-26T00:07:15.331Z,9.10
2022-10-26T00:09:48.148Z,9.04
2022-10-26T00:12:20.908Z,9.00
2022-10-26T00:14:53.835Z,9.00
2022-10-26T00:17:26.693Z,9.00
2022-10-26T00:20:00.696Z,8.90
2022-10-26T00:22:33.582Z,8.90
2022-10-26T00:25:07.309Z,8.90
2022-10-26T00:27:40.186Z,8.90
2022-10-26T00:30:14.576Z,8.90
2022-10-26T00:32:47.458Z,8.80
2022-10-26T00:35:23.944Z,8.80
2022-10-26T00:38:07.473Z,8.70
2022-10-26T00:40:40.495Z,8.70
2022-10-26T00:43:32.919Z,8.66
2022-10-26T00:46:07.586Z,8.60
2022-10-26T00:48:48.678Z,8.60
2022-10-26T00:51:27.985Z,8.50
2022-10-26T00:54:04.248Z,8.50
2022-10-26T00:56:37.882Z,8.46
2022-10-26T00:59:13.564Z,8.40
2022-10-26T01:01:50.432Z,8.40
2022-10-26T01:04:23.416Z,8.36
2022-10-26T01:06:56.531Z,8.30
2022-10-26T01:09:29.791Z,8.30
2022-10-26T01:12:02.772Z,8.20
2022-10-26T01:14:36.626Z,8.20
2022-10-26T01:17:28.924Z,8.20
2022-10-26T01:20:22.722Z,8.14
2022-10-26T01:23:02.599Z,8.10
2022-10-26T01:26:08.281Z,8.10
2022-10-26T01:28:59.866Z,8.10
2022-10-26T01:31:39.972Z,8.06
2022-10-26T01:34:22.318Z,8.10
2022-10-26T01:37:01.454Z,8.10
2022-10-26T01:39:40.638Z,8.10
2022-10-26T01:42:15.363Z,8.10
2022-10-26T01:44:54.648Z,8.10
2022-10-26T01:47:28.982Z,8.10
2022-10-26T01:50:05.182Z,8.10
2022-10-26T01:52:38.049Z,8.08
2022-10-26T01:55:46.943Z,8.10
2022-10-26T01:58:50.617Z,8.10
2022-10-26T02:01:42.495Z,8.10
2022-10-26T02:04:31.234Z,8.10
2022-10-26T02:07:11.968Z,8.10
2022-10-26T02:09:57.575Z,8.00
2022-10-26T02:12:46.664Z,8.00
2022-10-26T02:15:27.385Z,7.90
2022-10-26T02:18:05.447Z,7.90
2022-10-26T02:20:42.260Z,7.88
2022-10-26T02:23:16.628Z,7.90
2022-10-26T02:25:55.549Z,7.88
2022-10-26T02:28:34.428Z,7.80
2022-10-26T02:31:08.980Z,7.80
2022-10-26T02:36:29.402Z,7.80
2022-10-26T02:39:03.496Z,7.80
2022-10-26T02:41:37.203Z,7.70
2022-10-26T02:44:14.309Z,7.70
2022-10-26T02:46:47.653Z,7.70
2022-10-26T02:49:21.104Z,7.62
2022-10-26T02:52:01.056Z,7.60
2022-10-26T02:54:38.001Z,7.60
2022-10-26T02:57:17.162Z,7.50
2022-10-26T02:59:50.709Z,7.50
2022-10-26T03:02:24.382Z,7.50
2022-10-26T03:04:57.609Z,7.50
2022-10-26T03:07:30.505Z,7.60
2022-10-26T03:10:03.233Z,7.60
2022-10-26T03:12:36.018Z,7.60
2022-10-26T03:15:10.639Z,7.60
2022-10-26T03:17:43.499Z,7.52
2022-10-26T03:20:17.287Z,7.50
2022-10-26T03:22:51.676Z,7.50
2022-10-26T03:25:24.562Z,7.50
2022-10-26T03:28:03.902Z,7.50
2022-10-26T03:30:36.826Z,7.50
2022-10-26T03:33:10.367Z,7.46
2022-10-26T03:35:43.500Z,7.40
2022-10-26T03:38:16.346Z,7.40
2022-10-26T03:40:49.739Z,7.40
2022-10-26T03:43:22.595Z,7.40
2022-10-26T03:45:55.579Z,7.40
2022-10-26T03:48:28.493Z,7.36
2022-10-26T03:51:03.377Z,7.30
2022-10-26T03:53:36.306Z,7.32
2022-10-26T03:56:10.270Z,7.30
2022-10-26T03:58:43.155Z,7.32
2022-10-26T04:01:15.940Z,7.36
2022-10-26T04:03:48.869Z,7.36
2022-10-26T04:06:21.678Z,7.38
2022-10-26T04:08:58.494Z,7.40
2022-10-26T04:11:31.466Z,7.40
2022-10-26T04:14:04.506Z,7.40
2022-10-26T04:16:37.369Z,7.40
2022-10-26T04:19:10.625Z,7.40
2022-10-26T04:21:43.434Z,7.40
2022-10-26T04:24:16.470Z,7.38
2022-10-26T04:26:49.259Z,7.40
2022-10-26T04:29:22.082Z,7.40
2022-10-26T04:31:55.064Z,7.40
2022-10-26T04:34:27.882Z,7.40
2022-10-26T04:37:01.015Z,7.30
2022-10-26T04:39:34.036Z,7.30
2022-10-26T04:42:07.084Z,7.40
2022-10-26T04:44:39.869Z,7.40
2022-10-26T04:47:12.906Z,7.42
2022-10-26T04:49:45.687Z,7.50
2022-10-26T04:52:18.500Z,7.50
2022-10-26T04:54:51.392Z,7.60
2022-10-26T04:57:24.127Z,7.60
2022-10-26T04:59:56.949Z,7.60
2022-10-26T05:02:30.584Z,7.60
2022-10-26T05:07:41.106Z,7.60
2022-10-26T05:10:14.986Z,7.60
2022-10-26T05:12:53.755Z,7.70
2022-10-26T05:15:26.803Z,7.70
2022-10-26T05:18:06.706Z,7.70
2022-10-26T05:20:40.106Z,7.70
2022-10-26T05:23:18.620Z,7.80
2022-10-26T05:25:51.961Z,7.80
2022-10-26T05:28:24.972Z,7.80
2022-10-26T05:30:59.887Z,7.80
2022-10-26T05:33:32.673Z,7.80
2022-10-26T05:36:06.181Z,7.78
2022-10-26T05:38:39.075Z,7.72
2022-10-26T05:41:11.947Z,7.70
2022-10-26T05:43:44.828Z,7.74
2022-10-26T05:46:17.965Z,7.70
2022-10-26T05:48:50.893Z,7.70
2022-10-26T05:51:24.266Z,7.72
2022-10-26T05:53:57.775Z,7.70
2022-10-26T05:56:41.440Z,7.70
2022-10-26T05:59:19.152Z,7.70
2022-10-26T06:02:08.918Z,7.70
2022-10-26T06:04:48.213Z,7.64
2022-10-26T06:07:23.074Z,7.62
2022-10-26T06:09:57.464Z,7.70
2022-10-26T06:12:34.839Z,7.70
2022-10-26T06:15:10.907Z,7.72
2022-10-26T06:17:58.799Z,7.80
2022-10-26T06:20:50.740Z,7.90
2022-10-26T06:23:41.409Z,7.90
2022-10-26T06:26:18.151Z,8.00
2022-10-26T06:29:04.403Z,8.10
2022-10-26T06:31:37.236Z,8.20
2022-10-26T06:34:13.142Z,8.20
2022-10-26T06:36:48.391Z,8.30
2022-10-26T06:39:23.251Z,8.40
2022-10-26T06:41:56.859Z,8.60
2022-10-26T06:44:31.910Z,8.80
2022-10-26T06:47:11.594Z,8.96
2022-10-26T06:49:57.112Z,9.10
2022-10-26T06:52:36.704Z,9.20
2022-10-26T06:55:17.240Z,9.30
2022-10-26T06:57:49.087Z,9.40
2022-10-26T07:00:26.620Z,9.42
2022-10-26T07:03:00.364Z,9.50
2022-10-26T07:05:33.415Z,9.60
2022-10-26T07:08:07.706Z,9.72
2022-10-26T07:10:42.335Z,9.90
2022-10-26T07:13:15.721Z,10.00
2022-10-26T07:15:48.661Z,10.12
2022-10-26T07:18:21.481Z,10.30
2022-10-26T07:20:54.344Z,10.40
2022-10-26T07:23:27.274Z,10.50
2022-10-26T07:26:02.150Z,10.70
2022-10-26T07:28:36.674Z,11.00
2022-10-26T07:31:10.306Z,11.36
2022-10-26T07:33:44.846Z,11.86
2022-10-26T07:36:18.056Z,12.10
2022-10-26T07:38:54.404Z,12.20
2022-10-26T07:41:27.565Z,12.40
2022-10-26T07:44:00.682Z,12.72
2022-10-26T07:46:34.127Z,13.12
2022-10-26T07:49:06.963Z,13.56
2022-10-26T07:51:39.981Z,14.00
2022-10-26T07:54:13.037Z,14.40
2022-10-26T07:56:45.925Z,14.78
2022-10-26T07:59:19.405Z,15.10
2022-10-26T08:01:52.661Z,15.40
2022-10-26T08:04:25.568Z,15.70
2022-10-26T08:06:58.431Z,16.02
2022-10-26T08:09:31.264Z,16.42
2022-10-26T08:12:04.408Z,16.80
2022-10-26T08:14:37.266Z,17.10
2022-10-26T08:17:10.195Z,17.30
2022-10-26T08:19:43.109Z,17.50
2022-10-26T08:22:16.002Z,17.80
2022-10-26T08:24:48.826Z,18.08
2022-10-26T08:27:21.732Z,18.40
2022-10-26T08:29:54.573Z,18.70
2022-10-26T08:32:27.360Z,19.14
2022-10-26T08:35:00.206Z,19.62
2022-10-26T08:37:33.186Z,20.10
2022-10-26T08:40:06.669Z,20.60
2022-10-26T08:42:44.659Z,21.00
2022-10-26T08:45:31.682Z,21.28
2022-10-26T08:48:16.822Z,21.64
2022-10-26T08:50:53.166Z,22.06
2022-10-26T08:53:32.479Z,22.42
2022-10-26T08:56:12.805Z,22.80
2022-10-26T08:58:51.365Z,23.00
2022-10-26T09:01:24.785Z,23.30
2022-10-26T09:03:59.556Z,23.82
2022-10-26T09:06:38.564Z,24.48
2022-10-26T09:09:18.056Z,24.90
2022-10-26T09:12:03.845Z,25.20
2022-10-26T09:14:51.490Z,25.54
2022-10-26T09:17:39.434Z,25.80
2022-10-26T09:20:49.566Z,26.32
2022-10-26T09:23:54.238Z,26.94
2022-10-26T09:26:40.168Z,27.30
2022-10-26T09:29:16.787Z,27.40
2022-10-26T09:31:52.358Z,27.60
2022-10-26T09:34:34.070Z,28.04
2022-10-26T09:37:16.589Z,28.72
2022-10-26T09:39:57.550Z,29.30
2022-10-26T09:42:38.692Z,29.40
2022-10-26T09:45:21.947Z,29.50
2022-10-26T09:47:57.834Z,29.64
2022-10-26T09:50:34.443Z,29.80
2022-10-26T09:53:07.776Z,30.12
2022-10-26T09:55:46.957Z,30.74
2022-10-26T09:58:25.620Z,30.90
2022-10-26T10:00:58.657Z,31.30
2022-10-26T10:03:33.275Z,31.52
2022-10-26T10:06:21.818Z,31.64
2022-10-26T10:09:12.144Z,31.80
2022-10-26T10:11:54.877Z,31.94
2022-10-26T10:14:33.473Z,31.90
2022-10-26T10:17:20.313Z,32.14
2022-10-26T10:19:53.506Z,32.60
2022-10-26T10:22:29.410Z,33.20
2022-10-26T10:25:04.682Z,33.30
2022-10-26T10:27:37.579Z,33.30
2022-10-26T10:30:29.620Z,33.40
2022-10-26T10:33:14.688Z,33.92
2022-10-26T10:35:54.008Z,34.30
2022-10-26T10:38:27.052Z,34.52
2022-10-26T10:41:03.944Z,35.04
2022-10-26T10:43:36.912Z,35.10
2022-10-26T10:46:10.144Z,35.52
2022-10-26T10:48:50.093Z,36.22
2022-10-26T10:51:26.934Z,36.60
2022-10-26T10:54:00.108Z,36.30
2022-10-26T10:56:42.842Z,35.90
2022-10-26T10:59:46.422Z,35.94
2022-10-26T11:02:55.606Z,35.60
2022-10-26T11:05:45.392Z,35.60
2022-10-26T11:08:27.342Z,36.06
2022-10-26T11:11:07.231Z,36.58
2022-10-26T11:13:45.450Z,37.24
2022-10-26T11:16:24.973Z,37.70
2022-10-26T11:19:03.435Z,37.70
2022-10-26T11:21:39.394Z,37.98
2022-10-26T11:24:21.051Z,38.40
2022-10-26T11:26:58.684Z,38.30
2022-10-26T11:29:48.842Z,38.10
2022-10-26T11:32:29.230Z,38.30
2022-10-26T11:35:07.618Z,38.80
2022-10-26T11:37:49.713Z,38.80
2022-10-26T11:40:34.966Z,38.60
2022-10-26T11:43:20.209Z,38.52
2022-10-26T11:46:07.468Z,39.00
2022-10-26T11:48:46.664Z,39.10
2022-10-26T11:51:35.141Z,38.90
2022-10-26T11:54:13.656Z,39.12
2022-10-26T11:56:51.249Z,39.00
2022-10-26T11:59:30.680Z,38.78
2022-10-26T12:02:13.602Z,38.60
2022-10-26T12:04:50.839Z,38.80
2022-10-26T12:07:30.353Z,39.10
2022-10-26T12:10:07.160Z,38.88
2022-10-26T12:12:45.917Z,38.90
2022-10-26T12:15:35.383Z,38.24
2022-10-26T12:18:50.363Z,37.60
2022-10-26T12:21:21.214Z,37.50
2022-10-26T12:24:02.440Z,36.72
2022-10-26T12:26:56.869Z,34.18
2022-10-26T12:29:49.556Z,31.30
2022-10-26T12:32:56.765Z,29.36
2022-10-26T12:35:49.300Z,27.28
2022-10-26T12:39:01.053Z,25.68
2022-10-26T12:41:38.811Z,24.36
2022-10-26T12:44:39.889Z,23.50
2022-10-26T12:47:33.394Z,22.72
2022-10-26T12:50:23.992Z,22.10
2022-10-26T12:53:01.602Z,21.74
2022-10-26T12:56:03.327Z,21.50
2022-10-26T12:59:22.813Z,21.30
2022-10-26T13:02:22.072Z,21.10
2022-10-26T13:05:59.255Z,20.90
2022-10-26T13:08:43.055Z,20.70
2022-10-26T13:11:23.810Z,20.60
2022-10-26T13:14:03.176Z,20.50
2022-10-26T13:16:36.812Z,20.40
2022-10-26T13:19:26.590Z,20.30
2022-10-26T13:22:01.590Z,20.10
2022-10-26T13:27:58.806Z,19.92
2022-10-26T13:30:49.672Z,19.90
2022-10-26T13:33:38.329Z,19.80
2022-10-26T13:36:27.770Z,19.80
2022-10-26T13:39:06.780Z,19.70
2022-10-26T13:41:44.159Z,19.70
2022-10-26T13:44:25.936Z,19.60
2022-10-26T13:47:05.662Z,19.60
2022-10-26T13:49:42.787Z,19.58
2022-10-26T13:52:27.739Z,19.50
2022-10-26T13:55:04.195Z,19.40
2022-10-26T13:57:43.486Z,19.40
2022-10-26T14:00:23.812Z,19.30
2022-10-26T14:02:56.070Z,19.30
2022-10-26T14:05:28.917Z,19.20
2022-10-26T14:08:03.044Z,19.20
2022-10-26T14:10:42.261Z,19.10
2022-10-26T14:13:23.056Z,19.10
2022-10-26T14:15:57.761Z,19.00
2022-10-26T14:18:32.858Z,18.90
2022-10-26T14:21:08.141Z,19.00
2022-10-26T14:23:50.821Z,19.00
2022-10-26T14:26:29.533Z,19.00
2022-10-26T14:29:03.884Z,18.90
2022-10-26T14:31:38.735Z,18.80
2022-10-26T14:34:14.668Z,18.70
2022-10-26T14:36:52.292Z,18.70
2022-10-26T14:39:33.052Z,18.60
2022-10-26T14:42:13.829Z,18.50
2022-10-26T14:44:46.888Z,18.40
2022-10-26T14:47:28.425Z,18.40
2022-10-26T14:50:03.079Z,18.30
2022-10-26T14:52:38.238Z,18.26
2022-10-26T14:55:18.431Z,18.20
2022-10-26T14:57:55.086Z,18.10
2022-10-26T15:00:29.531Z,18.00
2022-10-26T15:03:03.456Z,17.90
2022-10-26T15:05:37.505Z,17.80
2022-10-26T15:08:56.356Z,17.78
2022-10-26T15:11:31.072Z,17.60
2022-10-26T15:14:04.507Z,17.56
2022-10-26T15:16:42.009Z,17.50
2022-10-26T15:19:24.035Z,17.40
2022-10-26T15:21:57.318Z,17.30
2022-10-26T15:24:38.968Z,17.20
2022-10-26T15:27:18.670Z,17.10
2022-10-26T15:29:54.146Z,16.94
2022-10-26T15:32:33.196Z,16.80
2022-10-26T15:35:33.633Z,16.70
2022-10-26T15:38:06.946Z,16.60
2022-10-26T15:40:45.136Z,16.50
2022-10-26T15:43:18.471Z,16.38
2022-10-26T15:45:52.956Z,16.24
2022-10-26T15:48:30.321Z,16.10
2022-10-26T15:51:03.302Z,16.00
2022-10-26T15:53:37.184Z,15.90
2022-10-26T15:56:17.310Z,15.80
2022-10-26T15:58:50.592Z,15.70
2022-10-26T16:01:25.266Z,15.70
2022-10-26T16:03:58.256Z,15.60
2022-10-26T16:06:33.657Z,15.60
2022-10-26T16:09:11.348Z,15.50
2022-10-26T16:11:44.616Z,15.50
2022-10-26T16:14:17.606Z,15.40
2022-10-26T16:16:50.655Z,15.30
2022-10-26T16:19:30.726Z,15.30
2022-10-26T16:22:04.986Z,15.20
2022-10-26T16:24:38.413Z,15.04
2022-10-26T16:27:11.594Z,14.90
2022-10-26T16:29:44.444Z,14.80
2022-10-26T16:32:17.471Z,14.70
2022-10-26T16:34:50.480Z,14.60
2022-10-26T16:37:23.579Z,14.50
2022-10-26T16:39:56.529Z,14.50
2022-10-26T16:42:29.661Z,14.40
2022-10-26T16:45:03.329Z,14.40
2022-10-26T16:47:40.151Z,14.38
2022-10-26T16:50:15.639Z,14.30
2022-10-26T16:52:48.461Z,14.30
2022-10-26T16:55:24.645Z,14.30
2022-10-26T16:57:57.799Z,14.30
2022-10-26T17:00:30.767Z,14.24
2022-10-26T17:03:03.747Z,14.20
2022-10-26T17:05:36.661Z,14.10
2022-10-26T17:08:09.977Z,14.00
2022-10-26T17:10:42.797Z,13.90
2022-10-26T17:13:15.654Z,13.80
2022-10-26T17:15:48.850Z,13.70
2022-10-26T17:18:21.735Z,13.68
2022-10-26T17:20:55.111Z,13.60
2022-10-26T17:23:28.334Z,13.60
2022-10-26T17:26:05.969Z,13.60
2022-10-26T17:28:39.325Z,13.60
2022-10-26T17:31:15.935Z,13.60
2022-10-26T17:33:51.036Z,13.60
2022-10-26T17:36:25.856Z,13.50
2022-10-26T17:39:01.039Z,13.50
2022-10-26T17:41:33.983Z,13.50
2022-10-26T17:44:07.652Z,13.50
2022-10-26T17:46:40.988Z,13.50
2022-10-26T17:49:14.109Z,13.50
2022-10-26T17:51:46.911Z,13.50
2022-10-26T17:54:21.178Z,13.42
2022-10-26T17:56:53.987Z,13.40
2022-10-26T17:59:26.945Z,13.40
2022-10-26T18:01:59.907Z,13.40
2022-10-26T18:04:32.909Z,13.30
2022-10-26T18:07:05.855Z,13.28
2022-10-26T18:09:38.835Z,13.20
2022-10-26T18:12:12.244Z,13.10
2022-10-26T18:14:45.203Z,12.98
2022-10-26T18:17:18.206Z,12.82
2022-10-26T18:19:51.107Z,12.76
2022-10-26T18:22:24.255Z,12.68
2022-10-26T18:24:57.182Z,12.60
2022-10-26T18:27:31.093Z,12.50
2022-10-26T18:30:03.953Z,12.50
2022-10-26T18:32:36.869Z,12.40
2022-10-26T18:35:10.949Z,12.40
2022-10-26T18:37:44.088Z,12.40
2022-10-26T18:40:18.151Z,12.30
2022-10-26T18:42:51.005Z,12.24
2022-10-26T18:45:24.159Z,12.20
2022-10-26T18:47:57.007Z,12.20
2022-10-26T18:50:29.902Z,12.20
2022-10-26T18:53:02.751Z,12.10
2022-10-26T18:55:35.735Z,12.10
2022-10-26T18:58:10.914Z,12.10
2022-10-26T19:00:44.903Z,12.10
2022-10-26T19:03:17.803Z,12.10
2022-10-26T19:05:50.650Z,12.10
2022-10-26T19:08:27.106Z,12.10
2022-10-26T19:11:05.446Z,12.10
2022-10-26T19:13:38.486Z,12.10
2022-10-26T19:16:21.646Z,12.10
2022-10-26T19:19:01.087Z,12.10
2022-10-26T19:21:34.509Z,12.10
2022-10-26T19:24:12.260Z,12.00
2022-10-26T19:26:45.517Z,12.00
2022-10-26T19:29:20.085Z,11.96
2022-10-26T19:31:55.033Z,11.90
2022-10-26T19:34:28.281Z,11.90
2022-10-26T19:37:01.058Z,11.84
2022-10-26T19:39:33.864Z,11.80
2022-10-26T19:42:06.971Z,11.74
2022-10-26T19:44:39.724Z,11.70
2022-10-26T19:47:12.668Z,11.60
2022-10-26T19:49:45.593Z,11.60
2022-10-26T19:54:56.325Z,11.46
2022-10-26T19:57:29.239Z,11.40
2022-10-26T20:00:02.282Z,11.30
2022-10-26T20:02:45.057Z,11.28
2022-10-26T20:05:18.021Z,11.20
2022-10-26T20:07:50.878Z,11.20
2022-10-26T20:10:24.127Z,11.12
2022-10-26T20:12:57.354Z,11.10
2022-10-26T20:15:30.441Z,11.10
2022-10-26T20:18:03.431Z,11.00
2022-10-26T20:20:38.133Z,11.00
2022-10-26T20:23:12.413Z,10.92
2022-10-26T20:25:51.535Z,10.90
2022-10-26T20:28:24.328Z,10.88
2022-10-26T20:30:57.405Z,10.80
2022-10-26T20:33:31.091Z,10.80
2022-10-26T20:36:04.316Z,10.70
2022-10-26T20:38:40.003Z,10.70
2022-10-26T20:41:15.436Z,10.70
2022-10-26T20:43:51.307Z,10.60
2022-10-26T20:46:29.762Z,10.60
2022-10-26T20:49:04.228Z,10.60
2022-10-26T20:52:08.625Z,10.50
2022-10-26T20:54:47.769Z,10.40
2022-10-26T20:57:26.588Z,10.30
2022-10-26T21:00:04.417Z,10.28
2022-10-26T21:02:38.033Z,10.20
2022-10-26T21:05:11.895Z,10.10
2022-10-26T21:07:44.812Z,10.00
2022-10-26T21:10:17.967Z,10.00
2022-10-26T21:12:51.045Z,9.90
2022-10-26T21:15:24.019Z,9.90
2022-10-26T21:17:56.927Z,9.80
2022-10-26T21:20:29.856Z,9.80
2022-10-26T21:23:03.015Z,9.80
2022-10-26T21:25:38.275Z,9.80
2022-10-26T21:28:11.249Z,9.90
2022-10-26T21:30:44.165Z,10.00
2022-10-26T21:33:18.924Z,10.00
2022-10-26T21:36:00.679Z,10.00
2022-10-26T21:38:34.991Z,10.08
2022-10-26T21:41:11.342Z,10.08
2022-10-26T21:43:46.981Z,10.08
2022-10-26T21:46:21.399Z,10.10
2022-10-26T21:48:55.001Z,10.10
2022-10-26T21:51:28.345Z,10.10
2022-10-26T21:54:01.159Z,10.00
2022-10-26T21:56:34.339Z,10.00
2022-10-26T21:59:07.508Z,10.00
2022-10-26T22:01:41.153Z,9.90
2022-10-26T22:04:15.724Z,9.90
2022-10-26T22:06:48.578Z,9.80
2022-10-26T22:09:21.480Z,9.80
2022-10-26T22:11:54.412Z,9.80
2022-10-26T22:14:27.652Z,9.78
2022-10-26T22:17:00.460Z,9.70
2022-10-26T22:19:33.701Z,9.70
2022-10-26T22:22:06.799Z,9.60
2022-10-26T22:24:39.754Z,9.60
2022-10-26T22:27:12.746Z,9.50
2022-10-26T22:29:45.742Z,9.40
2022-10-26T22:32:18.817Z,9.40
2022-10-26T22:35:00.315Z,9.30
2022-10-26T22:37:46.145Z,9.20
2022-10-26T22:40:19.276Z,9.20
2022-10-26T22:42:54.987Z,9.12
2022-10-26T22:45:28.051Z,9.10
2022-10-26T22:48:00.942Z,9.10
2022-10-26T22:50:33.940Z,9.10
2022-10-26T22:53:07.387Z,9.10
2022-10-26T22:55:42.118Z,9.10
2022-10-26T22:58:15.153Z,9.18
2022-10-26T23:00:48.034Z,9.20
2022-10-26T23:03:20.910Z,9.20
2022-10-26T23:05:54.321Z,9.28
2022-10-26T23:08:27.248Z,9.30
2022-10-26T23:11:02.608Z,9.30
2022-10-26T23:13:35.576Z,9.40
2022-10-26T23:16:13.039Z,9.40
2022-10-26T23:18:46.010Z,9.50
2022-10-26T23:21:20.042Z,9.50
2022-10-26T23:23:53.352Z,9.60
2022-10-26T23:26:26.451Z,9.60
2022-10-26T23:28:59.225Z,9.60
2022-10-26T23:31:32.233Z,9.60
2022-10-26T23:34:04.958Z,9.68
2022-10-26T23:36:37.714Z,9.70
2022-10-26T23:39:10.518Z,9.80
2022-10-26T23:41:43.631Z,9.84
2022-10-26T23:44:16.530Z,9.90
2022-10-26T23:46:49.331Z,9.90
2022-10-26T23:49:22.244Z,9.90
2022-10-26T23:51:55.030Z,9.96
2022-10-26T23:54:27.875Z,10.00
2022-10-26T23:57:00.822Z,10.00
2022-10-26T23:59:33.626Z,10.00
